createdAt,value
2023-06-23T00:00:22.399Z,10.07
2023-06-23T00:03:10.970Z,10.30
2023-06-23T00:05:39.380Z,10.02
2023-06-23T00:08:07.930Z,9.68
2023-06-23T00:10:36.211Z,9.63
2023-06-23T00:13:04.521Z,10.40
2023-06-23T00:15:33.048Z,9.57
2023-06-23T00:18:01.772Z,10.65
2023-06-23T00:20:30.324Z,9.52
2023-06-23T00:22:58.300Z,9.05
2023-06-23T00:25:26.275Z,9.95
2023-06-23T00:27:54.810Z,9.63
2023-06-23T00:30:23.459Z,10.15
2023-06-23T00:32:51.791Z,10.00
2023-06-23T00:35:20.026Z,9.68
2023-06-23T00:37:47.619Z,9.40
2023-06-23T00:40:17.459Z,9.40
2023-06-23T00:42:46.133Z,9.50
2023-06-23T00:45:14.892Z,9.27
2023-06-23T00:47:43.857Z,10.10
2023-06-23T00:50:24.173Z,9.90
2023-06-23T00:52:53.828Z,9.32
2023-06-23T00:55:29.361Z,9.77
2023-06-23T00:57:58.937Z,9.25
2023-06-23T01:00:29.266Z,9.85
2023-06-23T01:03:03.337Z,10.80
2023-06-23T01:05:37.906Z,9.27
2023-06-23T01:08:34.222Z,10.40
2023-06-23T01:11:34.621Z,10.00
2023-06-23T01:14:32.589Z,10.57
2023-06-23T01:17:06.467Z,10.35
2023-06-23T01:20:22.646Z,10.60
2023-06-23T01:23:15.788Z,9.95
2023-06-23T01:26:01.393Z,10.82
2023-06-23T01:28:47.945Z,9.70
2023-06-23T01:31:23.101Z,10.23
2023-06-23T01:33:57.845Z,10.20
2023-06-23T01:36:34.459Z,9.57
2023-06-23T01:39:05.455Z,10.02
2023-06-23T01:41:38.700Z,9.35
2023-06-23T01:44:15.605Z,9.65
2023-06-23T01:46:47.047Z,9.45
2023-06-23T01:49:18.712Z,9.93
2023-06-23T01:51:48.670Z,10.10
2023-06-23T01:54:17.535Z,9.88
2023-06-23T01:56:45.842Z,10.27
2023-06-23T01:59:14.656Z,10.23
2023-06-23T02:01:44.490Z,9.77
2023-06-23T02:04:15.098Z,10.10
2023-06-23T02:06:45.536Z,10.43
2023-06-23T02:09:21.109Z,10.10
2023-06-23T02:11:49.807Z,10.05
2023-06-23T02:14:20.738Z,9.95
2023-06-23T02:16:50.684Z,9.43
2023-06-23T02:19:20.114Z,9.57
2023-06-23T02:21:48.810Z,9.55
2023-06-23T02:24:20.443Z,9.85
2023-06-23T02:26:49.210Z,9.52
2023-06-23T02:29:17.271Z,10.45
2023-06-23T02:31:46.078Z,10.25
2023-06-23T02:34:14.360Z,8.95
2023-06-23T02:36:49.665Z,10.88
2023-06-23T02:39:22.807Z,10.40
2023-06-23T02:41:53.425Z,9.90
2023-06-23T02:44:28.173Z,9.00
2023-06-23T02:46:58.727Z,10.07
2023-06-23T02:49:30.168Z,10.25
2023-06-23T02:52:02.626Z,9.85
2023-06-23T02:57:00.746Z,9.20
2023-06-23T02:59:30.048Z,8.75
2023-06-23T03:01:58.948Z,9.00
2023-06-23T03:04:27.485Z,8.35
2023-06-23T03:06:55.340Z,8.35
2023-06-23T03:09:23.942Z,8.70
2023-06-23T03:11:51.621Z,8.75
2023-06-23T03:14:19.616Z,7.93
2023-06-23T03:16:51.048Z,7.93
2023-06-23T03:19:38.704Z,8.98
2023-06-23T03:22:17.213Z,7.93
2023-06-23T03:24:48.898Z,7.95
2023-06-23T03:27:17.483Z,7.38
2023-06-23T03:29:50.044Z,7.97
2023-06-23T03:32:22.112Z,9.75
2023-06-23T03:34:55.949Z,7.47
2023-06-23T03:37:28.225Z,7.50
2023-06-23T03:40:05.721Z,7.53
2023-06-23T03:42:37.284Z,7.10
2023-06-23T03:45:06.855Z,7.70
2023-06-23T03:47:35.021Z,6.60
2023-06-23T03:50:22.065Z,7.13
2023-06-23T03:52:50.523Z,6.57
2023-06-23T03:55:23.900Z,7.20
2023-06-23T04:00:20.704Z,7.00
2023-06-23T04:02:50.901Z,6.95
2023-06-23T04:05:19.541Z,6.70
2023-06-23T04:07:47.987Z,5.93
2023-06-23T04:10:19.653Z,6.68
2023-06-23T04:12:48.887Z,6.45
2023-06-23T04:15:19.703Z,5.93
2023-06-23T04:17:49.289Z,6.15
2023-06-23T04:20:18.144Z,6.40
2023-06-23T04:22:47.637Z,5.95
2023-06-23T04:25:19.016Z,5.82
2023-06-23T04:27:52.821Z,5.75
2023-06-23T04:30:21.916Z,5.78
2023-06-23T04:32:50.114Z,6.03
2023-06-23T04:35:18.627Z,5.93
2023-06-23T04:37:48.749Z,6.00
2023-06-23T04:40:42.878Z,5.93
2023-06-23T04:43:33.323Z,5.30
2023-06-23T04:46:20.087Z,5.03
2023-06-23T04:48:52.396Z,4.82
2023-06-23T04:51:23.225Z,4.93
2023-06-23T04:53:54.856Z,4.88
2023-06-23T04:56:24.999Z,4.93
2023-06-23T04:58:57.342Z,4.72
2023-06-23T05:01:26.758Z,4.90
2023-06-23T05:03:55.454Z,4.75
2023-06-23T05:06:24.348Z,5.00
2023-06-23T05:08:53.028Z,4.47
2023-06-23T05:11:22.214Z,4.57
2023-06-23T05:13:50.442Z,4.28
2023-06-23T05:16:19.681Z,4.28
2023-06-23T05:18:48.048Z,4.40
2023-06-23T05:21:17.752Z,5.20
2023-06-23T05:23:52.947Z,4.35
2023-06-23T05:26:22.960Z,4.80
2023-06-23T05:28:51.872Z,4.25
2023-06-23T05:31:21.623Z,4.78
2023-06-23T05:33:50.080Z,4.05
2023-06-23T05:36:21.624Z,3.63
2023-06-23T05:38:50.368Z,4.45
2023-06-23T05:41:18.303Z,4.53
2023-06-23T05:43:46.536Z,4.30
2023-06-23T05:46:16.609Z,3.83
2023-06-23T05:48:52.367Z,3.53
2023-06-23T05:51:30.329Z,3.65
2023-06-23T05:54:00.981Z,3.95
2023-06-23T05:56:53.335Z,3.80
2023-06-23T05:59:25.922Z,4.03
2023-06-23T06:01:58.555Z,4.20
2023-06-23T06:04:29.278Z,3.73
2023-06-23T06:06:58.867Z,4.28
2023-06-23T06:09:29.648Z,3.85
2023-06-23T06:11:58.979Z,4.07
2023-06-23T06:14:29.331Z,3.78
2023-06-23T06:16:58.044Z,3.80
2023-06-23T06:19:26.998Z,3.67
2023-06-23T06:21:57.004Z,3.67
2023-06-23T06:24:25.102Z,3.85
2023-06-23T06:26:58.492Z,4.00
2023-06-23T06:29:27.260Z,4.32
2023-06-23T06:31:56.264Z,3.75
2023-06-23T06:34:25.771Z,4.55
2023-06-23T06:36:56.239Z,4.07
2023-06-23T06:39:24.479Z,4.20
2023-06-23T06:41:53.782Z,3.95
2023-06-23T06:44:24.670Z,3.83
2023-06-23T06:46:54.083Z,4.53
2023-06-23T06:49:23.835Z,4.43
2023-06-23T06:51:53.548Z,4.35
2023-06-23T06:54:21.474Z,4.05
2023-06-23T06:56:50.424Z,4.28
2023-06-23T06:59:18.621Z,3.63
2023-06-23T07:01:47.908Z,4.13
2023-06-23T07:04:16.088Z,3.92
2023-06-23T07:06:44.546Z,4.15
2023-06-23T07:09:12.371Z,4.15
2023-06-23T07:11:40.446Z,4.68
2023-06-23T07:14:08.097Z,4.63
2023-06-23T07:16:36.384Z,4.53
2023-06-23T07:19:04.254Z,4.57
2023-06-23T07:21:33.966Z,4.60
2023-06-23T07:24:02.464Z,4.40
2023-06-23T07:26:30.627Z,4.50
2023-06-23T07:28:58.401Z,4.85
2023-06-23T07:31:27.197Z,4.93
2023-06-23T07:33:55.355Z,4.75
2023-06-23T07:36:23.342Z,5.35
2023-06-23T07:38:51.158Z,5.22
2023-06-23T07:41:19.614Z,4.82
2023-06-23T07:43:47.359Z,4.18
2023-06-23T07:46:15.524Z,5.40
2023-06-23T07:48:43.576Z,5.22
2023-06-23T07:51:11.756Z,5.45
2023-06-23T07:53:39.870Z,13.48
2023-06-23T07:56:08.140Z,4.95
2023-06-23T07:58:35.860Z,4.95
2023-06-23T08:01:04.386Z,5.03
2023-06-23T08:03:32.354Z,5.53
2023-06-23T08:06:00.860Z,5.20
2023-06-23T08:08:28.644Z,5.20
2023-06-23T08:10:57.509Z,5.03
2023-06-23T08:13:26.008Z,5.70
2023-06-23T08:15:56.859Z,5.47
2023-06-23T08:18:25.022Z,5.63
2023-06-23T08:20:53.567Z,6.00
2023-06-23T08:23:21.946Z,5.65
2023-06-23T08:25:50.095Z,5.88
2023-06-23T08:28:17.994Z,5.90
2023-06-23T08:30:46.568Z,6.07
2023-06-23T08:33:14.506Z,6.15
2023-06-23T08:35:42.934Z,6.07
2023-06-23T08:38:14.532Z,6.68
2023-06-23T08:40:43.425Z,6.85
2023-06-23T08:43:11.612Z,8.30
2023-06-23T08:45:44.638Z,7.70
2023-06-23T08:48:13.329Z,7.55
2023-06-23T08:50:41.543Z,7.15
2023-06-23T08:53:11.696Z,7.30
2023-06-23T08:55:40.432Z,7.80
2023-06-23T08:58:08.406Z,7.80
2023-06-23T09:00:38.331Z,7.90
2023-06-23T09:03:06.871Z,8.07
2023-06-23T09:05:35.531Z,7.72
2023-06-23T09:08:03.704Z,8.48
2023-06-23T09:10:37.691Z,9.07
2023-06-23T09:13:49.777Z,8.80
2023-06-23T09:16:44.985Z,9.48
2023-06-23T09:19:48.484Z,8.55
2023-06-23T09:22:20.856Z,9.45
2023-06-23T09:24:49.735Z,8.52
2023-06-23T09:27:18.226Z,8.82
2023-06-23T09:30:00.801Z,8.90
2023-06-23T09:32:44.666Z,10.10
2023-06-23T09:35:19.993Z,9.50
2023-06-23T09:37:49.056Z,10.45
2023-06-23T09:40:27.046Z,9.80
2023-06-23T09:43:12.653Z,9.85
2023-06-23T09:45:42.246Z,9.75
2023-06-23T09:48:19.865Z,10.27
2023-06-23T09:51:00.353Z,10.80
2023-06-23T09:53:33.168Z,10.68
2023-06-23T09:56:02.519Z,9.52
2023-06-23T09:58:37.646Z,9.50
2023-06-23T10:01:12.864Z,10.18
2023-06-23T10:03:55.437Z,10.07
2023-06-23T10:06:33.884Z,10.07
2023-06-23T10:09:05.712Z,10.40
2023-06-23T10:11:35.723Z,10.07
2023-06-23T10:14:07.614Z,10.18
2023-06-23T10:16:37.678Z,9.82
2023-06-23T10:19:06.713Z,9.60
2023-06-23T10:21:35.305Z,10.43
2023-06-23T10:24:07.238Z,10.07
2023-06-23T10:26:37.429Z,9.82
2023-06-23T10:29:08.579Z,8.93
2023-06-23T10:31:37.816Z,10.02
2023-06-23T10:34:07.304Z,10.05
2023-06-23T10:36:38.100Z,10.77
2023-06-23T10:39:07.166Z,11.43
2023-06-23T10:41:35.686Z,13.00
2023-06-23T10:44:04.666Z,12.65
2023-06-23T10:46:33.556Z,13.10
2023-06-23T10:49:04.962Z,13.95
2023-06-23T10:51:33.230Z,13.60
2023-06-23T10:54:06.544Z,13.05
2023-06-23T10:56:45.080Z,12.70
2023-06-23T10:59:30.604Z,13.27
2023-06-23T11:02:02.027Z,12.32
2023-06-23T11:04:40.592Z,12.98
2023-06-23T11:07:14.340Z,12.10
2023-06-23T11:09:56.978Z,12.68
2023-06-23T11:12:31.357Z,13.43
2023-06-23T11:15:22.937Z,12.05
2023-06-23T11:17:52.807Z,12.88
2023-06-23T11:20:21.035Z,13.55
2023-06-23T11:23:08.773Z,13.32
2023-06-23T11:25:49.084Z,12.90
2023-06-23T11:28:39.318Z,12.63
2023-06-23T11:31:29.149Z,13.45
2023-06-23T11:33:57.170Z,12.75
2023-06-23T11:36:27.274Z,12.63
2023-06-23T11:38:57.186Z,13.32
2023-06-23T11:41:32.250Z,12.27
2023-06-23T11:44:03.552Z,12.63
2023-06-23T11:46:35.510Z,12.52
2023-06-23T11:49:13.729Z,12.52
2023-06-23T11:51:42.433Z,11.88
2023-06-23T11:54:10.312Z,12.07
2023-06-23T11:56:42.926Z,12.13
2023-06-23T11:59:12.581Z,11.65
2023-06-23T12:01:41.152Z,11.75
2023-06-23T12:04:09.221Z,12.13
2023-06-23T12:06:37.766Z,11.63
2023-06-23T12:09:07.438Z,10.88
2023-06-23T12:11:39.024Z,10.43
2023-06-23T12:14:06.955Z,11.27
2023-06-23T12:16:39.020Z,10.75
2023-06-23T12:19:07.434Z,11.07
2023-06-23T12:21:40.805Z,11.70
2023-06-23T12:24:11.710Z,12.00
2023-06-23T12:26:43.325Z,11.20
2023-06-23T12:29:12.960Z,10.48
2023-06-23T12:31:41.696Z,10.80
2023-06-23T12:34:11.631Z,10.25
2023-06-23T12:36:41.330Z,9.65
2023-06-23T12:39:13.759Z,9.30
2023-06-23T12:41:42.588Z,10.07
2023-06-23T12:44:12.882Z,10.20
2023-06-23T12:46:42.985Z,9.63
2023-06-23T12:49:12.737Z,10.38
2023-06-23T12:51:41.411Z,9.52
2023-06-23T12:54:09.397Z,9.52
2023-06-23T12:56:38.386Z,9.77
2023-06-23T12:59:06.176Z,9.13
2023-06-23T13:01:35.139Z,9.55
2023-06-23T13:04:02.977Z,8.73
2023-06-23T13:06:31.405Z,9.35
2023-06-23T13:09:01.106Z,9.77
2023-06-23T13:11:29.438Z,10.27
2023-06-23T13:13:57.668Z,10.77
2023-06-23T13:16:25.788Z,9.70
2023-06-23T13:18:53.549Z,10.10
2023-06-23T13:21:21.863Z,9.70
2023-06-23T13:23:49.762Z,10.27
2023-06-23T13:26:18.355Z,9.88
2023-06-23T13:28:46.125Z,10.30
2023-06-23T13:31:14.513Z,9.50
2023-06-23T13:33:42.593Z,9.35
2023-06-23T13:36:10.630Z,9.48
2023-06-23T13:38:38.647Z,9.40
2023-06-23T13:41:07.249Z,8.65
2023-06-23T13:43:34.934Z,8.30
2023-06-23T13:46:03.179Z,9.35
2023-06-23T13:48:31.185Z,8.43
2023-06-23T13:51:00.592Z,8.90
2023-06-23T13:53:28.683Z,8.35
2023-06-23T13:55:56.939Z,8.65
2023-06-23T13:58:25.179Z,9.18
2023-06-23T14:00:54.724Z,8.68
2023-06-23T14:03:22.693Z,9.00
2023-06-23T14:05:53.845Z,8.68
2023-06-23T14:08:22.956Z,8.80
2023-06-23T14:10:51.327Z,8.65
2023-06-23T14:13:19.543Z,8.68
2023-06-23T14:15:47.513Z,9.43
2023-06-23T14:18:16.036Z,9.88
2023-06-23T14:20:46.061Z,9.13
2023-06-23T14:23:14.571Z,9.55
2023-06-23T14:25:43.392Z,8.80
2023-06-23T14:28:11.301Z,10.10
2023-06-23T14:30:39.815Z,9.45
2023-06-23T14:33:07.884Z,9.50
2023-06-23T14:35:36.766Z,9.63
2023-06-23T14:38:07.172Z,9.27
2023-06-23T14:40:36.034Z,9.93
2023-06-23T14:43:04.444Z,11.55
2023-06-23T14:45:40.047Z,11.30
2023-06-23T14:48:09.049Z,9.23
2023-06-23T14:50:38.273Z,8.60
2023-06-23T14:53:05.530Z,8.45
2023-06-23T14:55:34.728Z,8.98
2023-06-23T14:58:04.527Z,9.48
2023-06-23T15:00:33.404Z,8.50
2023-06-23T15:03:01.400Z,9.00
2023-06-23T15:05:30.684Z,9.27
2023-06-23T15:07:58.748Z,9.32
2023-06-23T15:10:28.138Z,9.63
2023-06-23T15:12:55.990Z,9.10
2023-06-23T15:15:24.084Z,10.98
2023-06-23T15:17:52.395Z,9.52
2023-06-23T15:20:21.115Z,9.13
2023-06-23T15:22:48.994Z,9.52
2023-06-23T15:25:17.047Z,10.05
2023-06-23T15:27:45.225Z,11.20
2023-06-23T15:30:14.245Z,10.13
2023-06-23T15:32:42.026Z,9.82
2023-06-23T15:35:10.614Z,10.50
2023-06-23T15:37:42.414Z,10.40
2023-06-23T15:40:12.300Z,10.02
2023-06-23T15:42:41.034Z,9.90
2023-06-23T15:45:10.451Z,9.07
2023-06-23T15:47:38.251Z,10.50
2023-06-23T15:50:06.963Z,9.80
2023-06-23T15:52:35.371Z,10.65
2023-06-23T15:55:04.131Z,10.20
2023-06-23T15:57:31.885Z,9.93
2023-06-23T16:00:00.094Z,11.13
2023-06-23T16:02:28.339Z,10.95
2023-06-23T16:04:56.983Z,11.63
2023-06-23T16:07:24.825Z,11.15
2023-06-23T16:09:55.395Z,10.82
2023-06-23T16:12:22.631Z,11.85
2023-06-23T16:14:50.927Z,11.77
2023-06-23T16:17:18.583Z,11.27
2023-06-23T16:19:46.474Z,11.20
2023-06-23T16:22:14.194Z,11.52
2023-06-23T16:24:42.103Z,11.23
2023-06-23T16:27:09.741Z,12.20
2023-06-23T16:29:37.560Z,11.65
2023-06-23T16:32:06.015Z,10.95
2023-06-23T16:34:33.882Z,11.55
2023-06-23T16:37:01.654Z,11.68
2023-06-23T16:39:29.811Z,12.95
2023-06-23T16:42:00.029Z,11.73
2023-06-23T16:44:28.181Z,12.10
2023-06-23T16:46:56.217Z,11.25
2023-06-23T16:49:24.933Z,11.75
2023-06-23T16:51:52.599Z,11.98
2023-06-23T16:54:20.655Z,11.48
2023-06-23T16:56:48.652Z,11.60
2023-06-23T16:59:17.037Z,11.93
2023-06-23T17:01:45.097Z,12.05
2023-06-23T17:04:16.331Z,11.82
2023-06-23T17:06:44.847Z,11.02
2023-06-23T17:09:13.290Z,12.75
2023-06-23T17:11:41.288Z,11.05
2023-06-23T17:14:10.181Z,11.85
2023-06-23T17:16:38.694Z,12.18
2023-06-23T17:19:06.808Z,11.30
2023-06-23T17:21:34.607Z,11.82
2023-06-23T17:24:03.063Z,12.25
2023-06-23T17:26:32.964Z,11.13
2023-06-23T17:29:01.137Z,11.73
2023-06-23T17:31:29.354Z,12.55
2023-06-23T17:33:57.774Z,12.20
2023-06-23T17:36:25.912Z,12.13
2023-06-23T17:38:54.364Z,10.48
2023-06-23T17:41:22.316Z,8.75
2023-06-23T17:43:50.782Z,7.82
2023-06-23T17:46:18.708Z,7.00
2023-06-23T17:48:47.263Z,6.63
2023-06-23T17:51:15.096Z,6.32
2023-06-23T17:53:42.950Z,5.50
2023-06-23T17:56:11.129Z,5.45
2023-06-23T17:58:39.077Z,5.57
2023-06-23T18:01:06.806Z,4.80
2023-06-23T18:03:35.942Z,4.55
2023-06-23T18:06:04.309Z,4.13
2023-06-23T18:08:32.459Z,4.47
2023-06-23T18:11:00.409Z,4.05
2023-06-23T18:13:28.706Z,4.50
2023-06-23T18:15:56.550Z,4.03
2023-06-23T18:18:25.273Z,3.67
2023-06-23T18:20:53.649Z,3.95
2023-06-23T18:23:21.965Z,3.90
2023-06-23T18:25:49.741Z,3.83
2023-06-23T18:28:17.833Z,3.65
2023-06-23T18:30:45.800Z,3.70
2023-06-23T18:33:14.314Z,4.22
2023-06-23T18:35:42.172Z,3.83
2023-06-23T18:38:10.921Z,3.58
2023-06-23T18:40:38.708Z,3.97
2023-06-23T18:43:07.384Z,3.88
2023-06-23T18:45:35.191Z,4.20
2023-06-23T18:48:03.872Z,3.42
2023-06-23T18:50:32.339Z,3.58
2023-06-23T18:53:01.277Z,4.40
2023-06-23T18:55:29.358Z,3.80
2023-06-23T18:57:57.663Z,4.47
2023-06-23T19:00:25.538Z,3.85
2023-06-23T19:02:54.163Z,3.67
2023-06-23T19:05:22.671Z,3.72
2023-06-23T19:07:52.648Z,3.55
2023-06-23T19:10:20.738Z,3.42
2023-06-23T19:12:51.020Z,4.13
2023-06-23T19:15:20.150Z,3.70
2023-06-23T19:17:48.560Z,3.80
2023-06-23T19:20:17.124Z,3.58
2023-06-23T19:22:45.584Z,3.35
2023-06-23T19:25:13.578Z,2.97
2023-06-23T19:27:42.145Z,3.20
2023-06-23T19:30:10.501Z,3.90
2023-06-23T19:32:38.630Z,3.78
2023-06-23T19:35:06.649Z,3.05
2023-06-23T19:37:35.177Z,3.38
2023-06-23T19:40:04.060Z,3.58
2023-06-23T19:42:32.441Z,3.60
2023-06-23T19:45:00.627Z,3.25
2023-06-23T19:47:29.188Z,3.17
2023-06-23T19:49:56.909Z,3.78
2023-06-23T19:52:26.582Z,3.38
2023-06-23T19:54:56.558Z,3.63
2023-06-23T19:57:24.708Z,3.70
2023-06-23T19:59:52.844Z,3.55
2023-06-23T20:02:22.277Z,3.63
2023-06-23T20:04:53.183Z,3.30
2023-06-23T20:07:22.848Z,3.78
2023-06-23T20:09:51.066Z,3.20
2023-06-23T20:12:19.133Z,4.03
2023-06-23T20:14:49.214Z,3.15
2023-06-23T20:17:19.350Z,3.95
2023-06-23T20:19:49.060Z,3.85
2023-06-23T20:22:17.688Z,3.13
2023-06-23T20:24:45.480Z,3.78
2023-06-23T20:27:13.985Z,3.60
2023-06-23T20:29:42.010Z,3.58
2023-06-23T20:32:12.830Z,3.58
2023-06-23T20:34:42.227Z,3.30
2023-06-23T20:37:10.519Z,3.80
2023-06-23T20:39:38.599Z,4.00
2023-06-23T20:42:07.233Z,3.88
2023-06-23T20:44:36.220Z,3.60
2023-06-23T20:47:04.930Z,3.75
2023-06-23T20:49:32.996Z,3.63
2023-06-23T20:52:01.290Z,3.55
2023-06-23T20:54:29.441Z,3.90
2023-06-23T20:56:57.674Z,4.18
2023-06-23T20:59:28.355Z,3.50
2023-06-23T21:01:56.981Z,4.13
2023-06-23T21:04:24.945Z,3.85
2023-06-23T21:06:54.374Z,4.68
2023-06-23T21:09:22.467Z,4.15
2023-06-23T21:11:50.973Z,4.53
2023-06-23T21:14:18.791Z,4.03
2023-06-23T21:16:46.985Z,4.20
2023-06-23T21:19:14.785Z,4.05
2023-06-23T21:21:43.180Z,4.32
2023-06-23T21:24:11.167Z,4.28
2023-06-23T21:26:39.702Z,4.05
2023-06-23T21:31:36.546Z,4.50
2023-06-23T21:34:04.882Z,4.38
2023-06-23T21:36:33.610Z,4.20
2023-06-23T21:39:01.465Z,4.03
2023-06-23T21:41:30.077Z,4.60
2023-06-23T21:43:57.835Z,4.35
2023-06-23T21:46:26.380Z,4.30
2023-06-23T21:48:58.374Z,4.03
2023-06-23T21:51:26.841Z,4.32
2023-06-23T21:53:54.731Z,4.13
2023-06-23T21:56:23.427Z,4.20
2023-06-23T21:58:51.991Z,4.35
2023-06-23T22:01:22.147Z,4.10
2023-06-23T22:03:50.706Z,4.38
2023-06-23T22:06:19.769Z,4.80
2023-06-23T22:08:47.473Z,4.13
2023-06-23T22:11:15.753Z,4.85
2023-06-23T22:13:43.598Z,4.30
2023-06-23T22:16:12.392Z,4.68
2023-06-23T22:18:49.765Z,4.43
2023-06-23T22:21:21.651Z,4.20
2023-06-23T22:23:49.694Z,4.47
2023-06-23T22:26:18.477Z,4.20
2023-06-23T22:28:45.925Z,4.43
2023-06-23T22:31:15.642Z,4.47
2023-06-23T22:33:43.834Z,4.70
2023-06-23T22:36:12.608Z,4.40
2023-06-23T22:38:40.453Z,4.70
2023-06-23T22:41:08.700Z,4.75
2023-06-23T22:43:36.458Z,5.03
2023-06-23T22:46:04.669Z,5.05
2023-06-23T22:48:32.662Z,4.70
2023-06-23T22:51:01.034Z,4.57
2023-06-23T22:53:28.759Z,4.10
2023-06-23T22:55:57.409Z,5.40
2023-06-23T22:58:25.127Z,4.63
2023-06-23T23:00:53.938Z,4.35
2023-06-23T23:03:21.881Z,4.10
2023-06-23T23:05:50.589Z,4.85
2023-06-23T23:08:18.592Z,4.47
2023-06-23T23:10:47.018Z,4.70
2023-06-23T23:13:14.834Z,5.38
2023-06-23T23:15:42.551Z,4.50
2023-06-23T23:18:10.322Z,4.32
2023-06-23T23:20:38.885Z,4.50
2023-06-23T23:23:07.184Z,5.35
2023-06-23T23:25:35.356Z,4.45
2023-06-23T23:28:04.196Z,4.45
2023-06-23T23:30:35.903Z,4.57
2023-06-23T23:33:04.005Z,4.75
2023-06-23T23:35:32.994Z,4.60
2023-06-23T23:38:01.760Z,5.05
